sensor_id;sensor_type;location;lat;lon;timestamp;pressure;altitude;pressure_sealevel;temperature;humidity
50684;BME280;36654;45.042;38.994;2024-01-07T00:01:02;101080.38;;;7.55;75.66
50684;BME280;36654;45.042;38.994;2024-01-07T00:03:28;101092.75;;;7.57;75.52
50684;BME280;36654;45.042;38.994;2024-01-07T00:05:53;101091.88;;;7.59;75.40
50684;BME280;36654;45.042;38.994;2024-01-07T00:08:19;101095.44;;;7.59;75.54
50684;BME280;36654;45.042;38.994;2024-01-07T00:10:44;101083.16;;;7.60;75.53
50684;BME280;36654;45.042;38.994;2024-01-07T00:13:10;101014.34;;;7.22;75.65
50684;BME280;36654;45.042;38.994;2024-01-07T00:15:36;101082.13;;;7.56;75.70
50684;BME280;36654;45.042;38.994;2024-01-07T00:18:02;101091.81;;;7.55;75.75
50684;BME280;36654;45.042;38.994;2024-01-07T00:20:27;101076.78;;;7.53;75.80
50684;BME280;36654;45.042;38.994;2024-01-07T00:22:53;101075.75;;;7.48;76.14
50684;BME280;36654;45.042;38.994;2024-01-07T00:25:19;101075.63;;;7.43;76.41
50684;BME280;36654;45.042;38.994;2024-01-07T00:27:45;101067.53;;;7.37;76.54
50684;BME280;36654;45.042;38.994;2024-01-07T00:30:11;101070.94;;;7.33;76.86
50684;BME280;36654;45.042;38.994;2024-01-07T00:32:36;101061.81;;;7.22;76.93
50684;BME280;36654;45.042;38.994;2024-01-07T00:35:02;101073.47;;;7.30;77.04
50684;BME280;36654;45.042;38.994;2024-01-07T00:37:28;101054.81;;;7.24;76.90
50684;BME280;36654;45.042;38.994;2024-01-07T00:39:54;101034.28;;;7.12;76.90
50684;BME280;36654;45.042;38.994;2024-01-07T00:42:20;101054.66;;;7.18;77.08
50684;BME280;36654;45.042;38.994;2024-01-07T00:44:46;101062.84;;;7.27;76.90
50684;BME280;36654;45.042;38.994;2024-01-07T00:47:11;101070.56;;;7.21;77.02
50684;BME280;36654;45.042;38.994;2024-01-07T00:49:37;101054.66;;;7.18;77.00
50684;BME280;36654;45.042;38.994;2024-01-07T00:52:05;101058.22;;;7.20;77.05
50684;BME280;36654;45.042;38.994;2024-01-07T00:54:31;101049.44;;;7.19;76.99
50684;BME280;36654;45.042;38.994;2024-01-07T00:56:57;101012.75;;;6.98;76.89
50684;BME280;36654;45.042;38.994;2024-01-07T00:59:22;101046.66;;;7.15;76.71
50684;BME280;36654;45.042;38.994;2024-01-07T01:01:48;101056.41;;;7.19;76.51
50684;BME280;36654;45.042;38.994;2024-01-07T01:04:14;101054.66;;;7.18;76.29
50684;BME280;36654;45.042;38.994;2024-01-07T01:06:39;101045.88;;;7.19;76.26
50684;BME280;36654;45.042;38.994;2024-01-07T01:09:05;100975.25;;;6.78;76.21
50684;BME280;36654;45.042;38.994;2024-01-07T01:11:31;100991.41;;;6.89;75.97
50684;BME280;36654;45.042;38.994;2024-01-07T01:13:56;101044.03;;;7.15;75.97
50684;BME280;36654;45.042;38.994;2024-01-07T01:16:22;101035.16;;;7.12;75.76
50684;BME280;36654;45.042;38.994;2024-01-07T01:18:50;101022.72;;;7.08;75.72
50684;BME280;36654;45.042;38.994;2024-01-07T01:21:15;101022.66;;;7.05;75.89
50684;BME280;36654;45.042;38.994;2024-01-07T01:23:42;100969.84;;;6.74;75.72
50684;BME280;36654;45.042;38.994;2024-01-07T01:26:08;101019.91;;;7.02;75.82
50684;BME280;36654;45.042;38.994;2024-01-07T01:28:33;101029.44;;;6.97;76.02
50684;BME280;36654;45.042;38.994;2024-01-07T01:30:59;101016.16;;;6.94;76.05
50684;BME280;36654;45.042;38.994;2024-01-07T01:33:25;101013.34;;;6.88;76.41
50684;BME280;36654;45.042;38.994;2024-01-07T01:35:50;101004.44;;;6.84;76.60
50684;BME280;36654;45.042;38.994;2024-01-07T01:38:16;100998.94;;;6.77;76.59
50684;BME280;36654;45.042;38.994;2024-01-07T01:40:42;101009.56;;;6.80;76.90
50684;BME280;36654;45.042;38.994;2024-01-07T01:43:08;100992.75;;;6.76;76.99
50684;BME280;36654;45.042;38.994;2024-01-07T01:45:33;100990.81;;;6.69;77.12
50684;BME280;36654;45.042;38.994;2024-01-07T01:47:59;100996.16;;;6.72;77.25
50684;BME280;36654;45.042;38.994;2024-01-07T01:50:26;100993.16;;;6.61;77.05
50684;BME280;36654;45.042;38.994;2024-01-07T01:52:52;100990.00;;;6.72;76.96
50684;BME280;36654;45.042;38.994;2024-01-07T01:55:18;100993.56;;;6.74;77.04
50684;BME280;36654;45.042;38.994;2024-01-07T01:57:46;100983.00;;;6.74;76.78
50684;BME280;36654;45.042;38.994;2024-01-07T02:00:12;100979.25;;;6.65;76.39
50684;BME280;36654;45.042;38.994;2024-01-07T02:02:38;100990.09;;;6.75;75.92
50684;BME280;36654;45.042;38.994;2024-01-07T02:05:04;100980.34;;;6.72;75.85
50684;BME280;36654;45.042;38.994;2024-01-07T02:07:31;100989.88;;;6.68;75.89
50684;BME280;36654;45.042;38.994;2024-01-07T02:09:56;100979.25;;;6.65;75.82
50684;BME280;36654;45.042;38.994;2024-01-07T02:12:22;100986.13;;;6.60;75.87
50684;BME280;36654;45.042;38.994;2024-01-07T02:14:48;100921.66;;;6.20;75.93
50684;BME280;36654;45.042;38.994;2024-01-07T02:17:14;100963.84;;;6.49;76.33
50684;BME280;36654;45.042;38.994;2024-01-07T02:19:40;100965.78;;;6.56;76.34
50684;BME280;36654;45.042;38.994;2024-01-07T02:22:06;100962.25;;;6.54;76.63
50684;BME280;36654;45.042;38.994;2024-01-07T02:24:32;100955.97;;;6.51;76.62
50684;BME280;36654;45.042;38.994;2024-01-07T02:26:58;100949.66;;;6.45;76.86
50684;BME280;36654;45.042;38.994;2024-01-07T02:29:28;100954.06;;;6.45;77.31
50684;BME280;36654;45.042;38.994;2024-01-07T02:31:54;100884.34;;;6.05;77.40
50684;BME280;36654;45.042;38.994;2024-01-07T02:34:20;100959.00;;;6.36;77.71
50684;BME280;36654;45.042;38.994;2024-01-07T02:36:45;100951.88;;;6.32;78.04
50684;BME280;36654;45.042;38.994;2024-01-07T02:39:11;100948.31;;;6.30;78.12
50684;BME280;36654;45.042;38.994;2024-01-07T02:41:37;100938.59;;;6.29;78.41
50684;BME280;36654;45.042;38.994;2024-01-07T02:44:03;100937.78;;;6.30;78.34
50684;BME280;36654;45.042;38.994;2024-01-07T02:46:28;100932.50;;;6.30;78.48
50684;BME280;36654;45.042;38.994;2024-01-07T02:48:54;100934.28;;;6.31;78.45
50684;BME280;36654;45.042;38.994;2024-01-07T02:51:20;100928.06;;;6.29;78.47
50684;BME280;36654;45.042;38.994;2024-01-07T02:53:45;100936.75;;;6.26;78.43
50684;BME280;36654;45.042;38.994;2024-01-07T02:56:11;100852.78;;;5.79;78.36
50684;BME280;36654;45.042;38.994;2024-01-07T02:58:36;100923.34;;;6.17;78.83
50684;BME280;36654;45.042;38.994;2024-01-07T03:01:07;100935.56;;;6.16;78.66
50684;BME280;36654;45.042;38.994;2024-01-07T03:03:33;100920.69;;;6.17;78.78
50684;BME280;36654;45.042;38.994;2024-01-07T03:05:59;100929.47;;;6.17;78.71
50684;BME280;36654;45.042;38.994;2024-01-07T03:08:25;100934.94;;;6.23;78.13
50684;BME280;36654;45.042;38.994;2024-01-07T03:10:50;100932.13;;;6.17;78.03
50684;BME280;36654;45.042;38.994;2024-01-07T03:13:16;100939.25;;;6.21;77.86
50684;BME280;36654;45.042;38.994;2024-01-07T03:15:41;100930.53;;;6.22;77.69
50684;BME280;36654;45.042;38.994;2024-01-07T03:18:08;100922.56;;;6.21;77.73
50684;BME280;36654;45.042;38.994;2024-01-07T03:20:34;100925.56;;;6.32;77.65
50684;BME280;36654;45.042;38.994;2024-01-07T03:23:02;100938.97;;;6.41;77.30
50684;BME280;36654;45.042;38.994;2024-01-07T03:25:28;100933.06;;;6.48;76.81
50684;BME280;36654;45.042;38.994;2024-01-07T03:27:53;100923.34;;;6.45;76.58
50684;BME280;36654;45.042;38.994;2024-01-07T03:30:19;100918.13;;;6.47;76.13
50684;BME280;36654;45.042;38.994;2024-01-07T03:32:47;100907.63;;;6.48;75.56
50684;BME280;36654;45.042;38.994;2024-01-07T03:35:14;100902.03;;;6.38;75.73
50684;BME280;36654;45.042;38.994;2024-01-07T03:37:40;100912.66;;;6.41;75.43
50684;BME280;36654;45.042;38.994;2024-01-07T03:40:10;100933.94;;;6.47;75.38
50684;BME280;36654;45.042;38.994;2024-01-07T03:42:37;100936.44;;;6.44;75.53
50684;BME280;36654;45.042;38.994;2024-01-07T03:45:03;100939.78;;;6.38;75.54
50684;BME280;36654;45.042;38.994;2024-01-07T03:47:29;100929.09;;;6.34;75.46
50684;BME280;36654;45.042;38.994;2024-01-07T03:49:56;100937.84;;;6.33;75.42
50684;BME280;36654;45.042;38.994;2024-01-07T03:52:22;100932.25;;;6.22;75.12
50684;BME280;36654;45.042;38.994;2024-01-07T03:54:48;100939.47;;;6.28;75.13
50684;BME280;36654;45.042;38.994;2024-01-07T03:57:13;100938.56;;;6.27;74.89
50684;BME280;36654;45.042;38.994;2024-01-07T03:59:39;100933.97;;;6.21;74.96
50684;BME280;36654;45.042;38.994;2024-01-07T04:02:05;100941.84;;;6.20;74.94
50684;BME280;36654;45.042;38.994;2024-01-07T04:04:30;100940.03;;;6.19;74.98
50684;BME280;36654;45.042;38.994;2024-01-07T04:06:56;100939.31;;;6.23;74.77
50684;BME280;36654;45.042;38.994;2024-01-07T04:09:22;100946.31;;;6.22;74.50
50684;BME280;36654;45.042;38.994;2024-01-07T04:11:47;100948.97;;;6.24;74.51
50684;BME280;36654;45.042;38.994;2024-01-07T04:14:15;100971.06;;;6.28;74.29
50684;BME280;36654;45.042;38.994;2024-01-07T04:16:41;100952.63;;;6.28;74.58
50684;BME280;36654;45.042;38.994;2024-01-07T04:19:07;100971.06;;;6.28;74.33
50684;BME280;36654;45.042;38.994;2024-01-07T04:21:32;100960.47;;;6.26;74.21
50684;BME280;36654;45.042;38.994;2024-01-07T04:23:58;100961.25;;;6.23;74.17
50684;BME280;36654;45.042;38.994;2024-01-07T04:26:24;100905.69;;;5.89;74.35
50684;BME280;36654;45.042;38.994;2024-01-07T04:28:49;100959.38;;;6.19;74.22
50684;BME280;36654;45.042;38.994;2024-01-07T04:31:15;100948.63;;;6.12;74.35
50684;BME280;36654;45.042;38.994;2024-01-07T04:33:41;100953.16;;;6.17;74.63
50684;BME280;36654;45.042;38.994;2024-01-07T04:36:07;100935.28;;;6.07;74.60
50684;BME280;36654;45.042;38.994;2024-01-07T04:38:32;100940.56;;;6.07;74.56
50684;BME280;36654;45.042;38.994;2024-01-07T04:40:58;100908.13;;;5.82;74.58
50684;BME280;36654;45.042;38.994;2024-01-07T04:43:24;100915.31;;;5.87;74.72
50684;BME280;36654;45.042;38.994;2024-01-07T04:45:49;100940.34;;;6.01;74.86
50684;BME280;36654;45.042;38.994;2024-01-07T04:48:16;100941.28;;;6.03;74.80
50684;BME280;36654;45.042;38.994;2024-01-07T04:50:43;100883.00;;;5.65;74.96
50684;BME280;36654;45.042;38.994;2024-01-07T04:53:09;100941.09;;;5.97;75.21
50684;BME280;36654;45.042;38.994;2024-01-07T04:55:36;100948.81;;;5.92;75.58
50684;BME280;36654;45.042;38.994;2024-01-07T04:58:02;100934.53;;;5.86;75.49
50684;BME280;36654;45.042;38.994;2024-01-07T05:00:29;100946.13;;;5.91;75.74
50684;BME280;36654;45.042;38.994;2024-01-07T05:02:55;100945.41;;;5.95;75.58
50684;BME280;36654;45.042;38.994;2024-01-07T05:05:20;100924.13;;;5.89;75.27
50684;BME280;36654;45.042;38.994;2024-01-07T05:07:46;100948.22;;;5.99;74.68
50684;BME280;36654;45.042;38.994;2024-01-07T05:10:12;100943.84;;;6.00;74.17
50684;BME280;36654;45.042;38.994;2024-01-07T05:12:37;100940.66;;;6.10;73.79
50684;BME280;36654;45.042;38.994;2024-01-07T05:15:04;100959.25;;;6.16;73.42
50684;BME280;36654;45.042;38.994;2024-01-07T05:17:30;100950.28;;;6.10;72.96
50684;BME280;36654;45.042;38.994;2024-01-07T05:19:55;100953.81;;;6.10;73.18
50684;BME280;36654;45.042;38.994;2024-01-07T05:22:21;100886.59;;;5.67;73.41
50684;BME280;36654;45.042;38.994;2024-01-07T05:24:47;100933.81;;;5.90;73.42
50684;BME280;36654;45.042;38.994;2024-01-07T05:27:13;100940.25;;;5.98;73.32
50684;BME280;36654;45.042;38.994;2024-01-07T05:29:38;100960.56;;;6.02;73.34
50684;BME280;36654;45.042;38.994;2024-01-07T05:32:05;100939.16;;;5.93;73.48
50684;BME280;36654;45.042;38.994;2024-01-07T05:34:31;100967.84;;;6.09;72.98
50684;BME280;36654;45.042;38.994;2024-01-07T05:36:57;100937.88;;;6.05;72.56
50684;BME280;36654;45.042;38.994;2024-01-07T05:39:22;100929.25;;;6.11;72.20
50684;BME280;36654;45.042;38.994;2024-01-07T05:41:48;100938.31;;;6.19;71.52
50684;BME280;36654;45.042;38.994;2024-01-07T05:44:13;100899.09;;;6.00;71.21
50684;BME280;36654;45.042;38.994;2024-01-07T05:46:39;100936.75;;;6.26;70.55
50684;BME280;36654;45.042;38.994;2024-01-07T05:49:06;100923.81;;;6.32;70.30
50684;BME280;36654;45.042;38.994;2024-01-07T05:51:31;100891.38;;;6.06;70.12
50684;BME280;36654;45.042;38.994;2024-01-07T05:53:57;100937.78;;;6.30;70.24
50684;BME280;36654;45.042;38.994;2024-01-07T05:56:23;100934.13;;;6.26;70.52
50684;BME280;36654;45.042;38.994;2024-01-07T05:58:49;100932.19;;;6.20;70.93
50684;BME280;36654;45.042;38.994;2024-01-07T06:01:22;100867.72;;;5.80;71.24
50684;BME280;36654;45.042;38.994;2024-01-07T06:03:48;100906.28;;;6.05;71.54
50684;BME280;36654;45.042;38.994;2024-01-07T06:06:14;100908.09;;;6.07;71.90
50684;BME280;36654;45.042;38.994;2024-01-07T06:08:41;100912.44;;;6.06;71.89
50684;BME280;36654;45.042;38.994;2024-01-07T06:11:07;100918.63;;;6.07;71.96
50684;BME280;36654;45.042;38.994;2024-01-07T06:13:33;100920.47;;;6.11;71.71
50684;BME280;36654;45.042;38.994;2024-01-07T06:15:59;100900.22;;;6.08;71.74
50684;BME280;36654;45.042;38.994;2024-01-07T06:18:25;100890.44;;;6.04;71.62
50684;BME280;36654;45.042;38.994;2024-01-07T06:20:50;100914.34;;;6.10;71.64
50684;BME280;36654;45.042;38.994;2024-01-07T06:23:16;100919.69;;;6.13;71.68
50684;BME280;36654;45.042;38.994;2024-01-07T06:25:42;100915.28;;;6.12;71.64
50684;BME280;36654;45.042;38.994;2024-01-07T06:28:09;100916.22;;;6.14;71.57
50684;BME280;36654;45.042;38.994;2024-01-07T06:30:35;100925.81;;;6.12;71.28
50684;BME280;36654;45.042;38.994;2024-01-07T06:33:01;100920.72;;;6.18;71.30
50684;BME280;36654;45.042;38.994;2024-01-07T06:35:27;100915.59;;;6.23;71.01
50684;BME280;36654;45.042;38.994;2024-01-07T06:37:53;100850.34;;;5.86;70.92
50684;BME280;36654;45.042;38.994;2024-01-07T06:40:19;100924.75;;;6.34;71.03
50684;BME280;36654;45.042;38.994;2024-01-07T06:42:45;100913.31;;;6.34;70.81
50684;BME280;36654;45.042;38.994;2024-01-07T06:45:13;100903.47;;;6.28;70.77
50684;BME280;36654;45.042;38.994;2024-01-07T06:47:40;100923.19;;;6.41;70.74
50684;BME280;36654;45.042;38.994;2024-01-07T06:50:06;100924.13;;;6.43;70.94
50684;BME280;36654;45.042;38.994;2024-01-07T06:52:32;100924.03;;;6.40;70.72
50684;BME280;36654;45.042;38.994;2024-01-07T06:54:57;100929.59;;;6.49;70.43
50684;BME280;36654;45.042;38.994;2024-01-07T06:57:23;100912.00;;;6.48;70.35
50684;BME280;36654;45.042;38.994;2024-01-07T06:59:49;100907.09;;;6.60;70.16
50684;BME280;36654;45.042;38.994;2024-01-07T07:02:16;100899.47;;;6.69;69.42
50684;BME280;36654;45.042;38.994;2024-01-07T07:04:42;100906.75;;;6.78;68.89
50684;BME280;36654;45.042;38.994;2024-01-07T07:07:07;100909.59;;;6.86;68.59
50684;BME280;36654;45.042;38.994;2024-01-07T07:09:33;100733.88;;;5.91;67.93
50684;BME280;36654;45.042;38.994;2024-01-07T07:12:00;100908.25;;;7.00;67.71
50684;BME280;36654;45.042;38.994;2024-01-07T07:14:25;100910.16;;;7.04;67.08
50684;BME280;36654;45.042;38.994;2024-01-07T07:16:51;100898.88;;;7.10;66.76
50684;BME280;36654;45.042;38.994;2024-01-07T07:19:17;100888.25;;;7.07;66.17
50684;BME280;36654;45.042;38.994;2024-01-07T07:21:43;100902.66;;;7.20;65.60
50684;BME280;36654;45.042;38.994;2024-01-07T07:24:09;100909.91;;;7.28;65.25
50684;BME280;36654;45.042;38.994;2024-01-07T07:26:35;100914.38;;;7.31;65.02
50684;BME280;36654;45.042;38.994;2024-01-07T07:29:06;100923.41;;;7.39;64.87
50684;BME280;36654;45.042;38.994;2024-01-07T07:31:32;100921.81;;;7.46;64.65
50684;BME280;36654;45.042;38.994;2024-01-07T07:33:58;100912.28;;;7.51;64.53
50684;BME280;36654;45.042;38.994;2024-01-07T07:36:23;100908.00;;;7.54;64.53
50684;BME280;36654;45.042;38.994;2024-01-07T07:38:49;100916.84;;;7.56;64.71
50684;BME280;36654;45.042;38.994;2024-01-07T07:41:15;100884.88;;;7.44;64.72
50684;BME280;36654;45.042;38.994;2024-01-07T07:43:40;100907.25;;;7.60;64.82
50684;BME280;36654;45.042;38.994;2024-01-07T07:46:06;100915.34;;;7.68;64.74
50684;BME280;36654;45.042;38.994;2024-01-07T07:48:32;100912.03;;;7.75;64.48
50684;BME280;36654;45.042;38.994;2024-01-07T07:50:57;100909.44;;;7.76;64.32
50684;BME280;36654;45.042;38.994;2024-01-07T07:53:23;100886.56;;;7.77;64.02
50684;BME280;36654;45.042;38.994;2024-01-07T07:55:49;100891.22;;;7.87;64.09
50684;BME280;36654;45.042;38.994;2024-01-07T07:58:15;100890.47;;;7.93;64.06
50684;BME280;36654;45.042;38.994;2024-01-07T08:00:41;100880.97;;;7.99;64.03
50684;BME280;36654;45.042;38.994;2024-01-07T08:03:06;100869.66;;;8.05;63.52
50684;BME280;36654;45.042;38.994;2024-01-07T08:05:32;100877.91;;;8.19;63.15
50684;BME280;36654;45.042;38.994;2024-01-07T08:07:58;100879.00;;;8.29;61.88
50684;BME280;36654;45.042;38.994;2024-01-07T08:10:23;100874.69;;;8.32;61.39
50684;BME280;36654;45.042;38.994;2024-01-07T08:12:49;100872.28;;;8.41;60.97
50684;BME280;36654;45.042;38.994;2024-01-07T08:15:15;100850.97;;;8.35;60.84
50684;BME280;36654;45.042;38.994;2024-01-07T08:17:41;100878.63;;;8.50;60.92
50684;BME280;36654;45.042;38.994;2024-01-07T08:20:07;100872.56;;;8.54;60.67
50684;BME280;36654;45.042;38.994;2024-01-07T08:22:32;100873.38;;;8.51;60.96
50684;BME280;36654;45.042;38.994;2024-01-07T08:24:58;100833.34;;;8.36;60.79
50684;BME280;36654;45.042;38.994;2024-01-07T08:27:24;100855.03;;;8.59;60.83
50684;BME280;36654;45.042;38.994;2024-01-07T08:29:50;100854.22;;;8.63;60.29
50684;BME280;36654;45.042;38.994;2024-01-07T08:32:15;100845.38;;;8.61;59.49
50684;BME280;36654;45.042;38.994;2024-01-07T08:34:41;100805.22;;;8.36;59.28
50684;BME280;36654;45.042;38.994;2024-01-07T08:37:07;100827.69;;;8.57;59.39
50684;BME280;36654;45.042;38.994;2024-01-07T08:39:34;100809.09;;;8.52;59.40
50684;BME280;36654;45.042;38.994;2024-01-07T08:42:00;100831.38;;;8.65;59.72
50684;BME280;36654;45.042;38.994;2024-01-07T08:44:25;100829.59;;;8.64;59.86
50684;BME280;36654;45.042;38.994;2024-01-07T08:46:51;100820.91;;;8.70;60.12
50684;BME280;36654;45.042;38.994;2024-01-07T08:49:17;100783.47;;;8.48;60.31
50684;BME280;36654;45.042;38.994;2024-01-07T08:51:42;100814.72;;;8.69;60.03
50684;BME280;36654;45.042;38.994;2024-01-07T08:54:08;100820.06;;;8.72;60.23
50684;BME280;36654;45.042;38.994;2024-01-07T08:56:34;100804.25;;;8.75;60.09
50684;BME280;36654;45.042;38.994;2024-01-07T08:59:00;100796.22;;;8.69;59.97
50684;BME280;36654;45.042;38.994;2024-01-07T09:01:26;100803.47;;;8.79;59.77
50684;BME280;36654;45.042;38.994;2024-01-07T09:03:51;100795.50;;;8.78;59.47
50684;BME280;36654;45.042;38.994;2024-01-07T09:06:17;100784.88;;;8.75;59.52
50684;BME280;36654;45.042;38.994;2024-01-07T09:08:43;100801.81;;;8.84;59.71
50684;BME280;36654;45.042;38.994;2024-01-07T09:11:09;100800.09;;;8.87;59.77
50684;BME280;36654;45.042;38.994;2024-01-07T09:13:38;100786.13;;;8.94;59.63
50684;BME280;36654;45.042;38.994;2024-01-07T09:16:04;100767.75;;;9.03;59.55
50684;BME280;36654;45.042;38.994;2024-01-07T09:18:29;100779.53;;;9.20;59.50
50684;BME280;36654;45.042;38.994;2024-01-07T09:20:56;100772.59;;;9.27;59.46
50684;BME280;36654;45.042;38.994;2024-01-07T09:23:22;100772.69;;;9.32;59.61
50684;BME280;36654;45.042;38.994;2024-01-07T09:25:48;100771.84;;;9.34;59.60
50684;BME280;36654;45.042;38.994;2024-01-07T09:28:14;100758.69;;;9.39;59.33
50684;BME280;36654;45.042;38.994;2024-01-07T09:30:40;100758.78;;;9.45;59.23
50684;BME280;36654;45.042;38.994;2024-01-07T09:33:06;100708.19;;;9.25;59.33
50684;BME280;36654;45.042;38.994;2024-01-07T09:35:32;100739.47;;;9.49;59.14
50684;BME280;36654;45.042;38.994;2024-01-07T09:37:58;100740.34;;;9.49;59.06
50684;BME280;36654;45.042;38.994;2024-01-07T09:40:23;100733.31;;;9.53;58.99
50684;BME280;36654;45.042;38.994;2024-01-07T09:42:50;100691.63;;;9.37;59.09
50684;BME280;36654;45.042;38.994;2024-01-07T09:45:15;100726.44;;;9.64;58.94
50684;BME280;36654;45.042;38.994;2024-01-07T09:47:44;100722.97;;;9.67;59.26
50684;BME280;36654;45.042;38.994;2024-01-07T09:50:11;100718.66;;;9.74;59.38
50684;BME280;36654;45.042;38.994;2024-01-07T09:52:43;100727.50;;;9.77;59.34
50684;BME280;36654;45.042;38.994;2024-01-07T09:55:13;100724.03;;;9.80;59.36
50684;BME280;36654;45.042;38.994;2024-01-07T09:57:44;100720.50;;;9.81;59.56
50684;BME280;36654;45.042;38.994;2024-01-07T10:00:11;100704.63;;;9.82;59.66
50684;BME280;36654;45.042;38.994;2024-01-07T10:02:37;100715.38;;;9.93;59.48
50684;BME280;36654;45.042;38.994;2024-01-07T10:05:06;100702.19;;;9.96;59.03
50684;BME280;36654;45.042;38.994;2024-01-07T10:07:32;100694.31;;;10.02;58.80
50684;BME280;36654;45.042;38.994;2024-01-07T10:10:00;100659.69;;;9.87;58.83
50684;BME280;36654;45.042;38.994;2024-01-07T10:12:35;100695.31;;;10.12;58.48
50684;BME280;36654;45.042;38.994;2024-01-07T10:15:00;100687.41;;;10.13;58.83
50684;BME280;36654;45.042;38.994;2024-01-07T10:17:27;100693.63;;;10.17;58.26
50684;BME280;36654;45.042;38.994;2024-01-07T10:19:53;100680.41;;;10.19;58.35
50684;BME280;36654;45.042;38.994;2024-01-07T10:22:19;100682.22;;;10.26;58.61
50684;BME280;36654;45.042;38.994;2024-01-07T10:24:45;100688.53;;;10.31;58.48
50684;BME280;36654;45.042;38.994;2024-01-07T10:27:11;100662.72;;;10.21;58.52
50684;BME280;36654;45.042;38.994;2024-01-07T10:29:37;100681.53;;;10.36;58.77
50684;BME280;36654;45.042;38.994;2024-01-07T10:32:03;100661.19;;;10.38;58.55
50684;BME280;36654;45.042;38.994;2024-01-07T10:34:36;100658.56;;;10.40;58.76
50684;BME280;36654;45.042;38.994;2024-01-07T10:37:03;100663.97;;;10.49;58.54
50684;BME280;36654;45.042;38.994;2024-01-07T10:39:30;100663.16;;;10.54;58.36
50684;BME280;36654;45.042;38.994;2024-01-07T10:41:56;100653.50;;;10.63;58.26
50684;BME280;36654;45.042;38.994;2024-01-07T10:44:33;100661.56;;;10.72;57.66
50684;BME280;36654;45.042;38.994;2024-01-07T10:46:59;100653.66;;;10.79;57.16
50684;BME280;36654;45.042;38.994;2024-01-07T10:49:27;100646.63;;;10.85;56.60
50684;BME280;36654;45.042;38.994;2024-01-07T10:52:05;100605.81;;;10.66;56.49
50684;BME280;36654;45.042;38.994;2024-01-07T10:54:32;100653.81;;;10.96;55.99
50684;BME280;36654;45.042;38.994;2024-01-07T10:59:32;100637.06;;;11.04;55.57
50684;BME280;36654;45.042;38.994;2024-01-07T11:01:59;100642.41;;;11.10;55.48
50684;BME280;36654;45.042;38.994;2024-01-07T11:07:05;100635.38;;;11.18;55.32
50684;BME280;36654;45.042;38.994;2024-01-07T11:09:44;100607.91;;;11.04;55.04
50684;BME280;36654;45.042;38.994;2024-01-07T11:12:15;100631.91;;;11.25;54.93
50684;BME280;36654;45.042;38.994;2024-01-07T11:14:42;100636.34;;;11.28;55.31
50684;BME280;36654;45.042;38.994;2024-01-07T11:20:33;100628.41;;;11.32;55.32
50684;BME280;36654;45.042;38.994;2024-01-07T11:26:00;100610.66;;;11.22;54.76
50684;BME280;36654;45.042;38.994;2024-01-07T11:28:55;100620.44;;;11.26;54.92
50684;BME280;36654;45.042;38.994;2024-01-07T11:34:04;100621.28;;;11.22;55.14
50684;BME280;36654;45.042;38.994;2024-01-07T11:36:29;100610.69;;;11.25;55.26
50684;BME280;36654;45.042;38.994;2024-01-07T11:38:55;100616.03;;;11.31;55.23
50684;BME280;36654;45.042;38.994;2024-01-07T11:41:24;100624.03;;;11.37;55.03
50684;BME280;36654;45.042;38.994;2024-01-07T11:43:55;100616.09;;;11.42;54.77
50684;BME280;36654;45.042;38.994;2024-01-07T11:46:22;100615.19;;;11.43;54.85
50684;BME280;36654;45.042;38.994;2024-01-07T11:48:48;100617.06;;;11.56;54.52
50684;BME280;36654;45.042;38.994;2024-01-07T11:51:14;100631.25;;;11.64;54.22
50684;BME280;36654;45.042;38.994;2024-01-07T11:53:39;100600.28;;;11.59;54.52
50684;BME280;36654;45.042;38.994;2024-01-07T11:56:08;100618.00;;;11.69;54.48
50684;BME280;36654;45.042;38.994;2024-01-07T11:58:34;100615.38;;;11.71;54.05
50684;BME280;36654;45.042;38.994;2024-01-07T12:00:59;100554.16;;;11.43;53.50
50684;BME280;36654;45.042;38.994;2024-01-07T12:03:25;100608.31;;;11.74;52.93
50684;BME280;36654;45.042;38.994;2024-01-07T12:05:51;100609.19;;;11.73;52.07
50684;BME280;36654;45.042;38.994;2024-01-07T12:08:17;100615.38;;;11.71;51.49
50684;BME280;36654;45.042;38.994;2024-01-07T12:10:43;100605.59;;;11.65;52.10
50684;BME280;36654;45.042;38.994;2024-01-07T12:13:09;100599.38;;;11.57;52.49
50684;BME280;36654;45.042;38.994;2024-01-07T12:15:37;100559.41;;;11.29;52.59
50684;BME280;36654;45.042;38.994;2024-01-07T12:18:04;100601.97;;;11.48;52.35
50684;BME280;36654;45.042;38.994;2024-01-07T12:20:29;100589.53;;;11.40;51.92
50684;BME280;36654;45.042;38.994;2024-01-07T12:23:05;100593.09;;;11.42;51.76
50684;BME280;36654;45.042;38.994;2024-01-07T12:25:31;100591.31;;;11.41;51.62
50684;BME280;36654;45.042;38.994;2024-01-07T12:27:56;100589.56;;;11.43;50.48
50684;BME280;36654;45.042;38.994;2024-01-07T12:30:24;100578.00;;;11.35;50.13
50684;BME280;36654;45.042;38.994;2024-01-07T12:32:51;100595.72;;;11.38;49.90
50684;BME280;36654;45.042;38.994;2024-01-07T12:35:17;100594.81;;;11.34;48.79
50684;BME280;36654;45.042;38.994;2024-01-07T12:37:43;100608.97;;;11.33;47.30
50684;BME280;36654;45.042;38.994;2024-01-07T12:40:10;100606.28;;;11.30;46.40
50684;BME280;36654;45.042;38.994;2024-01-07T12:42:37;100599.22;;;11.29;45.84
50684;BME280;36654;45.042;38.994;2024-01-07T12:45:06;100617.75;;;11.25;45.50
50684;BME280;36654;45.042;38.994;2024-01-07T12:47:32;100600.03;;;11.16;45.86
50684;BME280;36654;45.042;38.994;2024-01-07T12:49:59;100615.06;;;11.17;46.36
50684;BME280;36654;45.042;38.994;2024-01-07T12:52:24;100557.34;;;10.85;46.76
50684;BME280;36654;45.042;38.994;2024-01-07T12:54:52;100592.84;;;11.02;47.25
50684;BME280;36654;45.042;38.994;2024-01-07T12:57:18;100610.56;;;11.07;47.43